createdAt,value
2019-06-01T00:00:51.289Z,7.90
2019-06-01T00:03:27.079Z,6.60
2019-06-01T00:06:01.670Z,6.40
2019-06-01T00:08:36.288Z,6.23
2019-06-01T00:11:10.969Z,5.90
2019-06-01T00:13:45.815Z,5.83
2019-06-01T00:16:20.786Z,6.53
2019-06-01T00:18:55.483Z,6.40
2019-06-01T00:21:30.379Z,5.67
2019-06-01T00:24:05.378Z,6.53
2019-06-01T00:26:39.950Z,5.50
2019-06-01T00:29:14.653Z,6.10
2019-06-01T00:31:52.166Z,5.70
2019-06-01T00:34:27.157Z,6.80
2019-06-01T00:37:01.931Z,8.37
2019-06-01T00:39:38.253Z,7.80
2019-06-01T00:42:12.959Z,8.20
2019-06-01T00:44:48.485Z,7.43
2019-06-01T00:47:23.785Z,6.63
2019-06-01T00:49:58.287Z,6.83
2019-06-01T00:52:33.113Z,5.73
2019-06-01T00:55:08.277Z,6.70
2019-06-01T00:57:43.447Z,7.03
2019-06-01T01:00:18.318Z,7.17
2019-06-01T01:02:54.296Z,6.10
2019-06-01T01:05:29.309Z,6.08
2019-06-01T01:08:04.600Z,7.07
2019-06-01T01:10:39.968Z,7.87
2019-06-01T01:13:18.274Z,6.60
2019-06-01T01:15:53.531Z,7.15
2019-06-01T01:18:28.280Z,7.03
2019-06-01T01:21:03.283Z,6.83
2019-06-01T01:23:43.271Z,6.70
2019-06-01T01:26:27.456Z,5.95
2019-06-01T01:29:04.529Z,6.73
2019-06-01T01:31:39.302Z,6.22
2019-06-01T01:34:14.298Z,6.07
2019-06-01T01:36:49.913Z,5.13
2019-06-01T01:39:24.708Z,5.23
2019-06-01T01:41:59.294Z,5.87
2019-06-01T01:44:34.732Z,5.57
2019-06-01T01:51:22.710Z,4.90
2019-06-01T01:56:31.276Z,5.00
2019-06-01T01:59:05.957Z,5.17
2019-06-01T02:03:22.955Z,4.35
2019-06-01T02:06:00.466Z,4.87
2019-06-01T02:08:34.940Z,4.70
2019-06-01T02:11:09.311Z,4.75
2019-06-01T02:13:43.943Z,4.47
2019-06-01T02:16:18.338Z,4.10
2019-06-01T02:18:54.370Z,4.37
2019-06-01T02:21:29.278Z,4.30
2019-06-01T02:24:03.802Z,5.13
2019-06-01T02:26:37.946Z,4.80
2019-06-01T02:29:12.308Z,4.37
2019-06-01T02:31:47.885Z,4.27
2019-06-01T02:36:56.501Z,4.63
2019-06-01T02:39:31.289Z,4.17
2019-06-01T02:42:07.603Z,3.63
2019-06-01T02:44:41.950Z,4.23
2019-06-01T02:47:16.339Z,4.15
2019-06-01T02:49:55.520Z,4.30
2019-06-01T02:52:29.941Z,4.33
2019-06-01T02:55:04.977Z,4.67
2019-06-01T02:57:40.728Z,4.40
2019-06-01T03:00:17.497Z,4.30
2019-06-01T03:02:52.096Z,4.67
2019-06-01T03:05:27.272Z,4.10
2019-06-01T03:08:03.412Z,4.43
2019-06-01T03:10:40.643Z,4.20
2019-06-01T03:14:02.692Z,4.83
2019-06-01T03:19:21.256Z,4.53
2019-06-01T03:22:04.820Z,4.10
2019-06-01T03:24:40.270Z,4.63
2019-06-01T03:27:17.780Z,4.70
2019-06-01T03:29:57.884Z,4.20
2019-06-01T03:32:36.864Z,4.00
2019-06-01T03:35:08.860Z,4.00
2019-06-01T03:37:43.250Z,4.13
2019-06-01T03:40:23.756Z,4.75
2019-06-01T03:42:54.333Z,3.97
2019-06-01T03:45:28.733Z,4.17
2019-06-01T03:48:03.128Z,4.30
2019-06-01T03:50:37.694Z,4.40
2019-06-01T03:55:46.286Z,4.10
2019-06-01T03:58:20.764Z,4.50
2019-06-01T04:00:55.121Z,4.13
2019-06-01T04:03:29.665Z,4.60
2019-06-01T04:06:05.215Z,4.00
2019-06-01T04:08:39.724Z,4.30
2019-06-01T04:13:47.756Z,3.80
2019-06-01T04:16:22.253Z,4.30
2019-06-01T04:18:56.667Z,4.27
2019-06-01T04:21:30.952Z,3.90
2019-06-01T04:24:05.974Z,4.00
2019-06-01T04:26:41.624Z,3.90
2019-06-01T04:29:16.250Z,3.87
2019-06-01T04:31:50.715Z,3.80
2019-06-01T04:36:57.936Z,4.50
2019-06-01T04:39:32.276Z,4.53
2019-06-01T04:42:07.701Z,4.40
2019-06-01T04:49:49.994Z,3.90
2019-06-01T04:52:24.309Z,3.93
2019-06-01T04:54:58.761Z,3.92
2019-06-01T04:57:33.073Z,3.80
2019-06-01T05:00:19.813Z,4.07
2019-06-01T05:02:44.674Z,4.10
2019-06-01T05:05:19.122Z,4.40
2019-06-01T05:07:53.735Z,3.47
2019-06-01T05:13:00.952Z,3.57
2019-06-01T05:15:35.123Z,3.40
2019-06-01T05:18:10.052Z,3.80
2019-06-01T05:20:45.647Z,3.33
2019-06-01T05:23:20.152Z,3.40
2019-06-01T05:25:54.596Z,3.23
2019-06-01T05:28:28.917Z,3.63
2019-06-01T05:31:03.215Z,3.42
2019-06-01T05:33:37.975Z,3.40
2019-06-01T05:36:14.300Z,3.40
2019-06-01T05:38:49.737Z,3.42
2019-06-01T05:41:24.292Z,3.07
2019-06-01T05:43:58.709Z,3.20
2019-06-01T05:49:06.280Z,3.50
2019-06-01T05:51:40.711Z,3.20
2019-06-01T05:54:15.122Z,3.33
2019-06-01T05:56:49.765Z,3.13
2019-06-01T06:01:56.946Z,3.70
2019-06-01T06:04:31.287Z,4.20
2019-06-01T06:07:05.896Z,3.60
2019-06-01T06:09:40.338Z,3.97
2019-06-01T06:12:15.497Z,3.87
2019-06-01T06:14:49.948Z,3.90
2019-06-01T06:17:24.731Z,4.03
2019-06-01T06:19:59.249Z,4.23
2019-06-01T06:22:33.687Z,3.87
2019-06-01T06:25:08.352Z,3.60
2019-06-01T06:27:42.756Z,3.70
2019-06-01T06:33:06.929Z,3.80
2019-06-01T06:38:15.679Z,3.03
2019-06-01T06:43:32.246Z,3.12
2019-06-01T06:45:59.275Z,3.40
2019-06-01T06:48:33.725Z,3.13
2019-06-01T06:51:08.261Z,2.87
2019-06-01T06:53:43.014Z,2.67
2019-06-01T06:56:17.892Z,3.13
2019-06-01T06:58:52.355Z,2.58
2019-06-01T07:01:27.060Z,3.03
2019-06-01T07:04:12.268Z,2.33
2019-06-01T07:06:37.325Z,2.65
2019-06-01T07:09:11.894Z,2.47
2019-06-01T07:16:51.954Z,2.50
2019-06-01T07:19:27.782Z,2.77
2019-06-01T07:22:02.282Z,2.40
2019-06-01T07:24:36.900Z,2.13
2019-06-01T07:27:11.278Z,2.20
2019-06-01T07:29:45.732Z,2.20
2019-06-01T07:34:53.132Z,2.17
2019-06-01T07:37:28.552Z,2.08
2019-06-01T07:40:03.089Z,2.02
2019-06-01T07:42:37.653Z,2.27
2019-06-01T07:45:12.113Z,2.20
2019-06-01T07:47:46.739Z,2.10
2019-06-01T07:52:54.317Z,2.05
2019-06-01T07:55:29.717Z,2.10
2019-06-01T07:58:04.276Z,1.92
2019-06-01T08:00:38.953Z,2.30
2019-06-01T08:03:13.291Z,2.12
2019-06-01T08:05:47.942Z,2.63
2019-06-01T08:08:23.367Z,1.90
2019-06-01T08:10:57.900Z,2.40
2019-06-01T08:13:35.364Z,1.60
2019-06-01T08:16:08.697Z,1.70
2019-06-01T08:21:15.946Z,2.02
2019-06-01T08:23:51.696Z,2.10
2019-06-01T08:26:26.492Z,1.80
2019-06-01T08:29:00.957Z,1.75
2019-06-01T08:31:35.353Z,2.02
2019-06-01T08:34:09.951Z,1.80
2019-06-01T08:36:44.310Z,1.40
2019-06-01T08:39:18.786Z,1.60
2019-06-01T08:46:59.940Z,1.70
2019-06-01T08:49:34.622Z,1.57
2019-06-01T08:54:42.116Z,1.60
2019-06-01T08:57:16.800Z,1.70
2019-06-01T08:59:51.282Z,1.63
2019-06-01T09:02:26.604Z,1.90
2019-06-01T09:05:01.092Z,1.60
2019-06-01T09:07:35.729Z,1.90
2019-06-01T09:10:10.983Z,1.80
2019-06-01T09:13:16.778Z,1.82
2019-06-01T09:18:27.452Z,2.27
2019-06-01T09:21:01.977Z,2.00
2019-06-01T09:23:37.866Z,1.80
2019-06-01T09:26:12.322Z,1.93
2019-06-01T09:28:47.533Z,2.00
2019-06-01T09:31:22.100Z,2.13
2019-06-01T09:33:56.979Z,2.40
2019-06-01T09:36:32.458Z,2.20
2019-06-01T09:39:09.282Z,2.10
2019-06-01T09:41:43.879Z,1.80
2019-06-01T09:51:58.118Z,2.05
2019-06-01T09:54:34.489Z,1.70
2019-06-01T09:57:08.939Z,1.80
2019-06-01T09:59:43.299Z,1.72
2019-06-01T10:02:17.856Z,1.90
2019-06-01T10:04:52.288Z,1.80
2019-06-01T10:07:26.841Z,1.90
2019-06-01T10:10:01.301Z,1.90
2019-06-01T10:12:36.096Z,1.50
2019-06-01T10:15:10.878Z,2.00
2019-06-01T10:17:45.287Z,1.70
2019-06-01T10:20:20.656Z,2.00
2019-06-01T10:22:55.279Z,1.73
2019-06-01T10:25:30.326Z,1.43
2019-06-01T10:28:05.247Z,1.63
2019-06-01T10:30:41.808Z,1.90
2019-06-01T10:33:16.705Z,1.80
2019-06-01T10:35:51.147Z,1.70
2019-06-01T10:38:25.708Z,1.90
2019-06-01T10:41:00.278Z,2.10
2019-06-01T10:43:35.583Z,1.90
2019-06-01T10:48:43.350Z,1.77
2019-06-01T10:51:17.953Z,1.87
2019-06-01T10:53:52.338Z,2.00
2019-06-01T10:56:26.683Z,2.07
2019-06-01T11:04:10.962Z,2.10
2019-06-01T11:06:48.648Z,1.77
2019-06-01T11:09:21.684Z,1.77
2019-06-01T11:14:29.260Z,2.83
2019-06-01T11:17:03.778Z,1.90
2019-06-01T11:22:11.958Z,2.20
2019-06-01T11:24:46.348Z,1.80
2019-06-01T11:27:21.457Z,1.60
2019-06-01T11:29:56.296Z,1.80
2019-06-01T11:32:30.950Z,1.90
2019-06-01T11:35:05.931Z,1.60
2019-06-01T11:37:40.483Z,1.70
2019-06-01T11:40:15.006Z,1.77
2019-06-01T11:42:49.865Z,2.00
2019-06-01T11:45:24.311Z,1.80
2019-06-01T11:47:58.942Z,1.67
2019-06-01T11:50:35.129Z,2.30
2019-06-01T11:53:09.916Z,1.90
2019-06-01T11:55:45.471Z,2.05
2019-06-01T11:58:20.002Z,2.05
2019-06-01T12:00:54.508Z,1.60
2019-06-01T12:03:29.155Z,1.67
2019-06-01T12:06:03.651Z,1.60
2019-06-01T12:11:12.266Z,1.60
2019-06-01T12:13:47.095Z,1.70
2019-06-01T12:16:21.684Z,1.57
2019-06-01T12:21:28.962Z,1.63
2019-06-01T12:24:03.376Z,1.60
2019-06-01T12:26:37.786Z,1.57
2019-06-01T12:31:46.643Z,1.63
2019-06-01T12:34:21.284Z,1.52
2019-06-01T12:36:55.923Z,1.80
2019-06-01T12:39:30.310Z,1.30
2019-06-01T12:42:05.273Z,1.80
2019-06-01T12:44:39.843Z,1.70
2019-06-01T12:47:14.464Z,1.37
2019-06-01T12:49:49.300Z,1.50
2019-06-01T12:52:24.286Z,1.70
2019-06-01T12:54:59.108Z,1.85
2019-06-01T12:57:33.742Z,1.40
2019-06-01T13:02:46.227Z,1.40
2019-06-01T13:05:18.563Z,1.67
2019-06-01T13:08:01.735Z,1.70
2019-06-01T13:10:30.013Z,1.50
2019-06-01T13:13:04.753Z,1.50
2019-06-01T13:15:39.280Z,1.40
2019-06-01T13:18:14.064Z,1.70
2019-06-01T13:20:49.522Z,1.50
2019-06-01T13:25:57.390Z,1.52
2019-06-01T13:28:38.055Z,1.63
2019-06-01T13:31:08.341Z,1.40
2019-06-01T13:33:42.866Z,1.33
2019-06-01T13:36:18.304Z,1.63
2019-06-01T13:38:54.279Z,1.67
2019-06-01T13:41:28.697Z,1.50
2019-06-01T13:46:36.370Z,1.60
2019-06-01T13:49:10.927Z,1.60
2019-06-01T13:51:46.005Z,1.72
2019-06-01T13:54:21.327Z,1.50
2019-06-01T13:56:56.105Z,1.87
2019-06-01T13:59:30.662Z,1.50
2019-06-01T14:04:37.778Z,1.75
2019-06-01T14:09:45.240Z,1.93
2019-06-01T14:12:19.732Z,7.53
2019-06-01T14:14:53.948Z,2.20
2019-06-01T14:18:01.357Z,1.85
2019-06-01T14:20:35.796Z,1.60
2019-06-01T14:23:10.277Z,1.95
2019-06-01T14:25:45.888Z,1.70
2019-06-01T14:28:20.667Z,2.10
2019-06-01T14:33:29.270Z,1.70
2019-06-01T14:36:03.942Z,1.90
2019-06-01T14:38:46.845Z,1.50
2019-06-01T14:41:14.265Z,1.60
2019-06-01T14:43:51.186Z,1.50
2019-06-01T14:46:25.694Z,1.70
2019-06-01T14:49:00.262Z,7.60
2019-06-01T14:51:34.775Z,1.60
2019-06-01T14:54:09.271Z,1.50
2019-06-01T14:56:43.694Z,2.00
2019-06-01T14:59:18.375Z,1.90
2019-06-01T15:01:54.240Z,1.52
2019-06-01T15:04:28.890Z,2.17
2019-06-01T15:07:04.342Z,1.67
2019-06-01T15:09:38.998Z,1.77
2019-06-01T15:12:13.426Z,1.57
2019-06-01T15:14:48.516Z,1.70
2019-06-01T15:17:23.264Z,1.80
2019-06-01T15:19:58.288Z,1.72
2019-06-01T15:22:33.282Z,2.40
2019-06-01T15:25:08.956Z,2.00
2019-06-01T15:27:43.603Z,2.00
2019-06-01T15:30:18.944Z,1.77
2019-06-01T15:32:54.069Z,1.80
2019-06-01T15:35:28.721Z,1.60
2019-06-01T15:40:37.745Z,1.60
2019-06-01T15:45:45.093Z,1.70
2019-06-01T15:48:19.730Z,2.27
2019-06-01T15:50:59.507Z,1.63
2019-06-01T15:53:31.472Z,1.67
2019-06-01T15:56:06.895Z,1.40
2019-06-01T15:58:52.342Z,1.50
2019-06-01T16:01:17.647Z,1.60
2019-06-01T16:06:24.948Z,1.60
2019-06-01T16:08:59.391Z,1.93
2019-06-01T16:11:33.927Z,1.80
2019-06-01T16:14:08.302Z,1.63
2019-06-01T16:16:42.794Z,1.60
2019-06-01T16:21:49.891Z,1.70
2019-06-01T16:24:24.137Z,1.70
2019-06-01T16:26:58.735Z,1.60
2019-06-01T16:29:32.956Z,1.98
2019-06-01T16:32:07.177Z,2.25
2019-06-01T16:34:41.593Z,2.43
2019-06-01T16:37:15.947Z,1.90
2019-06-01T16:39:58.704Z,1.77
2019-06-01T16:42:26.288Z,2.00
2019-06-01T16:45:01.687Z,1.77
2019-06-01T16:50:11.998Z,1.77
2019-06-01T16:52:46.372Z,1.85
2019-06-01T16:55:22.297Z,1.92
2019-06-01T16:57:57.128Z,1.97
2019-06-01T17:00:31.685Z,1.77
2019-06-01T17:05:39.954Z,1.70
2019-06-01T17:08:14.987Z,1.53
2019-06-01T17:10:49.784Z,2.37
2019-06-01T17:15:57.310Z,4.17
2019-06-01T17:20:52.949Z,4.25
2019-06-01T17:23:30.581Z,2.47
2019-06-01T17:26:08.522Z,1.97
2019-06-01T17:28:45.321Z,1.80
2019-06-01T17:31:20.126Z,2.20
2019-06-01T17:33:54.950Z,2.47
2019-06-01T17:36:29.303Z,2.43
2019-06-01T17:39:04.292Z,2.73
2019-06-01T17:41:38.930Z,2.30
2019-06-01T17:44:13.341Z,2.43
2019-06-01T17:46:53.339Z,1.90
2019-06-01T17:49:24.309Z,1.77
2019-06-01T17:51:59.289Z,1.87
2019-06-01T17:54:33.964Z,2.20
2019-06-01T17:57:09.286Z,2.53
2019-06-01T17:59:44.390Z,2.63
2019-06-01T18:02:19.168Z,2.10
2019-06-01T18:04:53.792Z,2.20
2019-06-01T18:07:27.940Z,1.70
2019-06-01T18:10:02.515Z,1.80
2019-06-01T18:12:37.285Z,2.35
2019-06-01T18:15:12.848Z,2.60
2019-06-01T18:17:47.578Z,2.30
2019-06-01T18:20:22.292Z,2.02
2019-06-01T18:22:57.396Z,2.17
2019-06-01T18:25:33.572Z,2.30
2019-06-01T18:28:14.651Z,2.33
2019-06-01T18:30:44.672Z,2.50
2019-06-01T18:33:20.595Z,3.10
2019-06-01T18:35:55.732Z,3.27
2019-06-01T18:38:30.767Z,3.10
2019-06-01T18:41:13.422Z,2.20
2019-06-01T18:43:41.750Z,2.63
2019-06-01T18:46:17.376Z,3.43
2019-06-01T18:48:51.913Z,9.68
2019-06-01T18:51:26.971Z,5.13
2019-06-01T18:54:01.623Z,3.93
2019-06-01T18:56:37.289Z,4.25
2019-06-01T18:59:12.298Z,4.67
2019-06-01T19:01:46.944Z,4.58
2019-06-01T19:04:21.988Z,5.00
2019-06-01T19:06:56.756Z,4.10
2019-06-01T19:12:04.340Z,5.22
2019-06-01T19:14:39.163Z,5.65
2019-06-01T19:17:14.404Z,7.07
2019-06-01T19:19:49.291Z,7.60
2019-06-01T19:22:23.795Z,6.90
2019-06-01T19:27:31.674Z,6.07
2019-06-01T19:30:07.093Z,5.47
2019-06-01T19:32:42.275Z,5.20
2019-06-01T19:35:17.322Z,5.30
2019-06-01T19:40:00.686Z,4.30
2019-06-01T19:45:23.554Z,4.50
2019-06-01T19:47:46.296Z,4.30
2019-06-01T19:50:21.498Z,3.70
2019-06-01T19:52:56.292Z,4.00
2019-06-01T19:55:30.756Z,4.17
2019-06-01T20:00:40.955Z,3.70
2019-06-01T20:03:20.245Z,3.33
2019-06-01T20:05:51.914Z,3.37
2019-06-01T20:08:26.289Z,3.47
2019-06-01T20:11:00.794Z,3.67
2019-06-01T20:16:08.300Z,3.90
2019-06-01T20:18:44.742Z,3.90
2019-06-01T20:23:53.913Z,4.37
2019-06-01T20:26:40.443Z,4.10
2019-06-01T20:29:04.634Z,4.53
2019-06-01T20:31:38.946Z,4.27
2019-06-01T20:34:14.347Z,4.33
2019-06-01T20:37:11.871Z,3.92
2019-06-01T20:39:46.287Z,3.70
2019-06-01T20:42:30.192Z,3.67
2019-06-01T20:44:59.645Z,3.70
2019-06-01T20:50:10.336Z,3.60
2019-06-01T20:52:44.786Z,3.53
2019-06-01T20:57:53.705Z,3.87
2019-06-01T21:03:00.963Z,3.63
2019-06-01T21:05:35.316Z,3.47
2019-06-01T21:10:24.203Z,3.37
2019-06-01T21:12:59.008Z,3.43
2019-06-01T21:15:33.714Z,3.22
2019-06-01T21:20:41.529Z,3.90
2019-06-01T21:23:16.607Z,4.05
2019-06-01T21:25:51.287Z,3.17
2019-06-01T21:28:26.046Z,4.20
2019-06-01T21:31:00.674Z,6.10
2019-06-01T21:36:08.137Z,6.60
2019-06-01T21:38:42.771Z,6.47
2019-06-01T21:43:52.316Z,4.47
2019-06-01T21:46:26.957Z,4.70
2019-06-01T21:49:01.499Z,4.40
2019-06-01T21:51:36.282Z,4.80
2019-06-01T21:54:11.257Z,5.77
2019-06-01T21:56:45.985Z,6.60
2019-06-01T21:59:20.621Z,6.83
2019-06-01T22:01:55.363Z,6.92
2019-06-01T22:04:30.107Z,6.93
2019-06-01T22:07:05.157Z,5.87
2019-06-01T22:09:40.943Z,6.23
2019-06-01T22:12:17.475Z,5.70
2019-06-01T22:14:52.300Z,4.87
2019-06-01T22:17:27.902Z,5.30
2019-06-01T22:20:02.999Z,5.07
2019-06-01T22:22:37.730Z,6.47
2019-06-01T22:25:13.281Z,7.07
2019-06-01T22:27:48.298Z,6.20
2019-06-01T22:30:24.471Z,6.57
2019-06-01T22:32:59.365Z,6.72
2019-06-01T22:35:34.314Z,5.50
2019-06-01T22:38:08.970Z,6.13
2019-06-01T22:40:43.598Z,5.22
2019-06-01T22:43:35.113Z,5.47
2019-06-01T22:45:54.639Z,5.17
2019-06-01T22:51:03.681Z,4.43
2019-06-01T22:53:38.109Z,4.53
2019-06-01T22:56:12.866Z,4.40
2019-06-01T22:58:47.639Z,4.20
2019-06-01T23:01:22.894Z,4.00
2019-06-01T23:03:57.691Z,3.40
2019-06-01T23:06:32.364Z,3.75
2019-06-01T23:09:09.314Z,3.40
2019-06-01T23:11:43.868Z,3.60
2019-06-01T23:14:19.560Z,3.50
2019-06-01T23:16:54.283Z,4.50
2019-06-01T23:19:29.963Z,4.13
2019-06-01T23:22:05.305Z,3.97
2019-06-01T23:24:40.285Z,3.90
2019-06-01T23:27:15.331Z,3.53
2019-06-01T23:29:50.129Z,3.40
2019-06-01T23:32:24.762Z,3.23
2019-06-01T23:37:32.939Z,3.87
2019-06-01T23:40:09.353Z,3.85
2019-06-01T23:42:43.979Z,3.80
2019-06-01T23:45:18.656Z,3.67
2019-06-01T23:47:54.288Z,3.22
2019-06-01T23:50:29.211Z,3.93
2019-06-01T23:53:13.077Z,3.55
2019-06-01T23:55:40.758Z,4.00
